PWSweather.com
Personal Weather Stations
Station Observations

ChardChardGB

Lat: 50.877408, Lon: -2.94964741

Elevation: 341

Station Type: WS3083

http://www.merriott-astro.co.uk/weather/index.htm

High Low Average
Temperature 74.5°F23.6°C 54.9°F12.7°C 63.2°F17.3°C
Dew Point 54.9°F12.7°C 47.4°F8.6°C 50.8°F10.4°C
Winds 9.8 mph 15.8 kmh 0.4 mph 0.6 kmh 4.0 mph SW6.4 kmh SW
Wind Gusts 11.4 mph18.3 kmh 0.7 mph1.1 kmh 5.0 mph8.0 kmh
Humidity 82% 42% 65%
Pressure 29.84 in1010.5 mb 29.64 in1003.7 mb -
Precipitation 0.00 in0.0 mm - -
Hour Temp Dew Point Humidity Winds Wind Gusts Pressure Precip Precip Rate Daily Precip Total
12:00 AM 57.9°F14.4°C 52.5°F11.4°C 82% 1.9 mph SSW3.1 kmh SSW 3.8 mph6.1 kmh 29.77 in1008.1 mb 0.00 in0.0 mm 0.00 in0.0 mm 0.00 in0.0 mm
12:10 AM 58.3°F14.6°C 52.8°F11.6°C 82% 2.6 mph NW4.2 kmh NW 3.8 mph6.1 kmh 29.76 in1007.8 mb 0.00 in0.0 mm 0.00 in0.0 mm 0.00 in0.0 mm
12:20 AM 58.6°F14.8°C 53.2°F11.8°C 82% 1.9 mph WSW3.1 kmh WSW 3.1 mph5.0 kmh 29.76 in1007.8 mb 0.00 in0.0 mm 0.00 in0.0 mm 0.00 in0.0 mm
12:30 AM 59.0°F15.0°C 53.5°F11.9°C 82% 1.0 mph WSW1.6 kmh WSW 3.1 mph5.0 kmh 29.76 in1007.8 mb 0.00 in0.0 mm 0.00 in0.0 mm 0.00 in0.0 mm
12:40 AM 58.8°F14.9°C 53.3°F11.8°C 82% 1.7 mph WSW2.7 kmh WSW 3.8 mph6.1 kmh 29.76 in1007.8 mb 0.00 in0.0 mm 0.00 in0.0 mm 0.00 in0.0 mm
12:50 AM 58.6°F14.8°C 52.8°F11.6°C 81% 2.5 mph SSW4.0 kmh SSW 6.0 mph9.7 kmh 29.76 in1007.8 mb 0.00 in0.0 mm 0.00 in0.0 mm 0.00 in0.0 mm
01:00 AM 58.3°F14.6°C 52.5°F11.4°C 81% 2.2 mph W3.5 kmh W 6.0 mph9.7 kmh 29.76 in1007.8 mb 0.00 in0.0 mm 0.00 in0.0 mm 0.00 in0.0 mm
01:10 AM 57.9°F14.4°C 52.1°F11.2°C 81% 1.5 mph SW2.4 kmh SW 3.8 mph6.1 kmh 29.76 in1007.8 mb 0.00 in0.0 mm 0.00 in0.0 mm 0.00 in0.0 mm
01:20 AM 57.6°F14.2°C 51.8°F11.0°C 81% 0.5 mph N0.8 kmh N 2.2 mph3.5 kmh 29.76 in1007.8 mb 0.00 in0.0 mm 0.00 in0.0 mm 0.00 in0.0 mm
01:30 AM 57.9°F14.4°C 52.5°F11.4°C 82% 1.2 mph S1.9 kmh S 2.2 mph3.5 kmh 29.76 in1007.8 mb 0.00 in0.0 mm 0.00 in0.0 mm 0.00 in0.0 mm
01:40 AM 57.9°F14.4°C 52.1°F11.2°C 81% 1.7 mph SSW2.7 kmh SSW 3.8 mph6.1 kmh 29.77 in1008.1 mb 0.00 in0.0 mm 0.00 in0.0 mm 0.00 in0.0 mm
01:50 AM 57.7°F14.3°C 52.0°F11.1°C 81% 1.0 mph SW1.6 kmh SW 1.6 mph2.6 kmh 29.76 in1007.8 mb 0.00 in0.0 mm 0.00 in0.0 mm 0.00 in0.0 mm
02:00 AM 57.7°F14.3°C 52.0°F11.1°C 81% 2.3 mph W3.7 kmh W 3.8 mph6.1 kmh 29.77 in1008.1 mb 0.00 in0.0 mm 0.00 in0.0 mm 0.00 in0.0 mm
02:10 AM 58.3°F14.6°C 52.5°F11.4°C 81% 3.5 mph WNW5.6 kmh WNW 5.4 mph8.7 kmh 29.77 in1008.1 mb 0.00 in0.0 mm 0.00 in0.0 mm 0.00 in0.0 mm
02:26 AM 72.7°F22.6°C 53.0°F11.7°C 50% 3.1 mph S5.0 kmh S 3.1 mph5.0 kmh 29.64 in1003.7 mb 0.00 in0.0 mm 0.00 in0.0 mm 0.00 in0.0 mm
02:56 AM 73.8°F23.2°C 54.0°F12.2°C 50% 7.6 mph NE12.2 kmh NE 7.6 mph12.2 kmh 29.64 in1003.7 mb 0.00 in0.0 mm 0.00 in0.0 mm 0.00 in0.0 mm
03:26 AM 71.4°F21.9°C 53.4°F11.9°C 53% 6.0 mph NW9.7 kmh NW 6.0 mph9.7 kmh 29.64 in1003.7 mb 0.00 in0.0 mm 0.00 in0.0 mm 0.00 in0.0 mm
03:56 AM 71.4°F21.9°C 53.9°F12.2°C 54% 8.3 mph W13.4 kmh W 8.3 mph13.4 kmh 29.64 in1003.7 mb 0.00 in0.0 mm 0.00 in0.0 mm 0.00 in0.0 mm
04:26 AM 72.0°F22.2°C 54.9°F12.7°C 55% 6.9 mph NW11.1 kmh NW 6.9 mph11.1 kmh 29.65 in1004.1 mb 0.00 in0.0 mm 0.00 in0.0 mm 0.00 in0.0 mm
04:56 AM 72.0°F22.2°C 53.9°F12.2°C 53% 4.5 mph NW7.2 kmh NW 4.5 mph7.2 kmh 29.65 in1004.1 mb 0.00 in0.0 mm 0.00 in0.0 mm 0.00 in0.0 mm
05:26 AM 71.8°F22.1°C 53.2°F11.8°C 52% 9.8 mph N15.8 kmh N 9.8 mph15.8 kmh 29.65 in1004.1 mb 0.00 in0.0 mm 0.00 in0.0 mm 0.00 in0.0 mm
05:56 AM 73.4°F23.0°C 52.5°F11.4°C 48% 7.6 mph NW12.2 kmh NW 7.6 mph12.2 kmh 29.65 in1004.1 mb 0.00 in0.0 mm 0.00 in0.0 mm 0.00 in0.0 mm
06:26 AM 72.5°F22.5°C 52.2°F11.2°C 49% 7.6 mph W12.2 kmh W 7.6 mph12.2 kmh 29.65 in1004.1 mb 0.00 in0.0 mm 0.00 in0.0 mm 0.00 in0.0 mm
06:56 AM 73.8°F23.2°C 52.8°F11.6°C 48% 5.4 mph W8.7 kmh W 5.4 mph8.7 kmh 29.64 in1003.7 mb 0.00 in0.0 mm 0.00 in0.0 mm 0.00 in0.0 mm
07:26 AM 74.5°F23.6°C 52.3°F11.3°C 46% 6.9 mph W11.1 kmh W 6.9 mph11.1 kmh 29.65 in1004.1 mb 0.00 in0.0 mm 0.00 in0.0 mm 0.00 in0.0 mm
07:56 AM 71.8°F22.1°C 51.6°F10.9°C 49% 9.2 mph W14.8 kmh W 9.2 mph14.8 kmh 29.64 in1003.7 mb 0.00 in0.0 mm 0.00 in0.0 mm 0.00 in0.0 mm
08:27 AM 73.8°F23.2°C 49.2°F9.6°C 42% 9.2 mph W14.8 kmh W 9.2 mph14.8 kmh 29.64 in1003.7 mb 0.00 in0.0 mm 0.00 in0.0 mm 0.00 in0.0 mm
08:57 AM 73.2°F22.9°C 50.6°F10.3°C 45% 6.9 mph NW11.1 kmh NW 6.9 mph11.1 kmh 29.64 in1003.7 mb 0.00 in0.0 mm 0.00 in0.0 mm 0.00 in0.0 mm
09:27 AM 72.5°F22.5°C 51.7°F10.9°C 48% 6.0 mph NW9.7 kmh NW 6.0 mph9.7 kmh 29.64 in1003.7 mb 0.00 in0.0 mm 0.00 in0.0 mm 0.00 in0.0 mm
09:57 AM 71.8°F22.1°C 51.6°F10.9°C 49% 6.9 mph NW11.1 kmh NW 6.9 mph11.1 kmh 29.64 in1003.7 mb 0.00 in0.0 mm 0.00 in0.0 mm 0.00 in0.0 mm
10:27 AM 70.2°F21.2°C 51.2°F10.7°C 51% 6.9 mph NE11.1 kmh NE 6.9 mph11.1 kmh 29.65 in1004.1 mb 0.00 in0.0 mm 0.00 in0.0 mm 0.00 in0.0 mm
10:57 AM 69.3°F20.7°C 50.4°F10.2°C 51% 3.1 mph W5.0 kmh W 3.1 mph5.0 kmh 29.65 in1004.1 mb 0.00 in0.0 mm 0.00 in0.0 mm 0.00 in0.0 mm
11:27 AM 64.9°F18.3°C 50.3°F10.2°C 59% 2.2 mph NW3.5 kmh NW 2.2 mph3.5 kmh 29.65 in1004.1 mb 0.00 in0.0 mm 0.00 in0.0 mm 0.00 in0.0 mm
11:57 AM 61.9°F16.6°C 50.0°F10.0°C 65% 3.1 mph NW5.0 kmh NW 3.1 mph5.0 kmh 29.66 in1004.4 mb 0.00 in0.0 mm 0.00 in0.0 mm 0.00 in0.0 mm
12:27 PM 60.8°F16.0°C 49.8°F9.9°C 67% 4.5 mph NW7.2 kmh NW 4.5 mph7.2 kmh 29.67 in1004.7 mb 0.00 in0.0 mm 0.00 in0.0 mm 0.00 in0.0 mm
12:57 PM 60.6°F15.9°C 50.8°F10.4°C 70% 2.2 mph W3.5 kmh W 2.2 mph3.5 kmh 29.68 in1005.1 mb 0.00 in0.0 mm 0.00 in0.0 mm 0.00 in0.0 mm
01:27 PM 60.6°F15.9°C 51.2°F10.7°C 71% 2.2 mph NW3.5 kmh NW 2.2 mph3.5 kmh 29.68 in1005.1 mb 0.00 in0.0 mm 0.00 in0.0 mm 0.00 in0.0 mm
01:57 PM 59.0°F15.0°C 50.4°F10.2°C 73% 1.6 mph S2.6 kmh S 1.6 mph2.6 kmh 29.68 in1005.1 mb 0.00 in0.0 mm 0.00 in0.0 mm 0.00 in0.0 mm
02:27 PM 58.5°F14.7°C 51.3°F10.7°C 77% 2.2 mph S3.5 kmh S 2.2 mph3.5 kmh 29.68 in1005.1 mb 0.00 in0.0 mm 0.00 in0.0 mm 0.00 in0.0 mm
02:57 PM 57.7°F14.3°C 51.6°F10.9°C 80% 0.7 mph NW1.1 kmh NW 0.7 mph1.1 kmh 29.68 in1005.1 mb 0.00 in0.0 mm 0.00 in0.0 mm 0.00 in0.0 mm
03:27 PM 57.9°F14.4°C 52.5°F11.4°C 82% 1.6 mph E2.6 kmh E 1.6 mph2.6 kmh 29.67 in1004.7 mb 0.00 in0.0 mm 0.00 in0.0 mm 0.00 in0.0 mm
03:57 PM 59.0°F15.0°C 53.5°F11.9°C 82% 1.6 mph SW2.6 kmh SW 1.6 mph2.6 kmh 29.68 in1005.1 mb 0.00 in0.0 mm 0.00 in0.0 mm 0.00 in0.0 mm
04:27 PM 58.3°F14.6°C 52.5°F11.4°C 81% 3.8 mph NW6.1 kmh NW 3.8 mph6.1 kmh 29.67 in1004.7 mb 0.00 in0.0 mm 0.00 in0.0 mm 0.00 in0.0 mm
04:57 PM 57.9°F14.4°C 52.1°F11.2°C 81% 1.6 mph N2.6 kmh N 1.6 mph2.6 kmh 29.68 in1005.1 mb 0.00 in0.0 mm 0.00 in0.0 mm 0.00 in0.0 mm
05:27 PM 57.9°F14.4°C 52.1°F11.2°C 81% 3.8 mph W6.1 kmh W 3.8 mph6.1 kmh 29.68 in1005.1 mb 0.00 in0.0 mm 0.00 in0.0 mm 0.00 in0.0 mm
05:40 PM 69.1°F20.6°C 50.7°F10.4°C 52% 8.3 mph NW13.4 kmh NW 9.8 mph15.8 kmh 29.78 in1008.5 mb 0.00 in0.0 mm 0.00 in0.0 mm 0.00 in0.0 mm
05:50 PM 68.4°F20.2°C 50.1°F10.1°C 52% 5.9 mph NW9.5 kmh NW 6.9 mph11.1 kmh 29.78 in1008.5 mb 0.00 in0.0 mm 0.00 in0.0 mm 0.00 in0.0 mm
06:00 PM 68.4°F20.2°C 50.1°F10.1°C 52% 6.5 mph NNW10.5 kmh NNW 9.2 mph14.8 kmh 29.78 in1008.5 mb 0.00 in0.0 mm 0.00 in0.0 mm 0.00 in0.0 mm
06:10 PM 68.4°F20.2°C 50.6°F10.3°C 53% 4.9 mph N7.9 kmh N 7.6 mph12.2 kmh 29.78 in1008.5 mb 0.00 in0.0 mm 0.00 in0.0 mm 0.00 in0.0 mm
06:20 PM 67.3°F19.6°C 50.1°F10.1°C 54% 5.1 mph NE8.2 kmh NE 9.2 mph14.8 kmh 29.79 in1008.8 mb 0.00 in0.0 mm 0.00 in0.0 mm 0.00 in0.0 mm
06:30 PM 66.2°F19.0°C 50.1°F10.1°C 56% 5.0 mph N8.0 kmh N 8.3 mph13.4 kmh 29.79 in1008.8 mb 0.00 in0.0 mm 0.00 in0.0 mm 0.00 in0.0 mm
06:40 PM 66.0°F18.9°C 49.9°F9.9°C 56% 6.3 mph W10.1 kmh W 8.3 mph13.4 kmh 29.78 in1008.5 mb 0.00 in0.0 mm 0.00 in0.0 mm 0.00 in0.0 mm
06:50 PM 67.5°F19.7°C 50.3°F10.2°C 54% 7.6 mph NW12.2 kmh NW 11.4 mph18.3 kmh 29.79 in1008.8 mb 0.00 in0.0 mm 0.00 in0.0 mm 0.00 in0.0 mm
07:00 PM 69.1°F20.6°C 50.2°F10.1°C 51% 6.4 mph WSW10.3 kmh WSW 9.2 mph14.8 kmh 29.79 in1008.8 mb 0.00 in0.0 mm 0.00 in0.0 mm 0.00 in0.0 mm
07:10 PM 67.8°F19.9°C 49.6°F9.8°C 52% 5.9 mph WNW9.5 kmh WNW 8.3 mph13.4 kmh 29.79 in1008.8 mb 0.00 in0.0 mm 0.00 in0.0 mm 0.00 in0.0 mm
07:20 PM 66.0°F18.9°C 48.9°F9.4°C 54% 5.5 mph NNW8.9 kmh NNW 7.6 mph12.2 kmh 29.79 in1008.8 mb 0.00 in0.0 mm 0.00 in0.0 mm 0.00 in0.0 mm
07:30 PM 65.3°F18.5°C 49.2°F9.6°C 56% 4.9 mph WNW7.9 kmh WNW 7.6 mph12.2 kmh 29.80 in1009.1 mb 0.00 in0.0 mm 0.00 in0.0 mm 0.00 in0.0 mm
07:40 PM 64.0°F17.8°C 49.4°F9.7°C 59% 6.2 mph WNW10.0 kmh WNW 9.2 mph14.8 kmh 29.80 in1009.1 mb 0.00 in0.0 mm 0.00 in0.0 mm 0.00 in0.0 mm
07:50 PM 63.5°F17.5°C 49.4°F9.7°C 60% 4.7 mph N7.6 kmh N 7.6 mph12.2 kmh 29.80 in1009.1 mb 0.00 in0.0 mm 0.00 in0.0 mm 0.00 in0.0 mm
08:00 PM 62.6°F17.0°C 50.3°F10.2°C 64% 3.3 mph NNW5.3 kmh NNW 4.5 mph7.2 kmh 29.80 in1009.1 mb 0.00 in0.0 mm 0.00 in0.0 mm 0.00 in0.0 mm
08:10 PM 62.1°F16.7°C 50.2°F10.1°C 65% 4.0 mph N6.4 kmh N 6.9 mph11.1 kmh 29.80 in1009.1 mb 0.00 in0.0 mm 0.00 in0.0 mm 0.00 in0.0 mm
08:20 PM 61.5°F16.4°C 50.1°F10.1°C 66% 3.8 mph WSW6.1 kmh WSW 6.0 mph9.7 kmh 29.80 in1009.1 mb 0.00 in0.0 mm 0.00 in0.0 mm 0.00 in0.0 mm
08:30 PM 61.2°F16.2°C 49.7°F9.8°C 66% 4.7 mph NNW7.6 kmh NNW 6.9 mph11.1 kmh 29.80 in1009.1 mb 0.00 in0.0 mm 0.00 in0.0 mm 0.00 in0.0 mm
08:40 PM 60.8°F16.0°C 49.4°F9.7°C 66% 3.0 mph NW4.8 kmh NW 6.9 mph11.1 kmh 29.80 in1009.1 mb 0.00 in0.0 mm 0.00 in0.0 mm 0.00 in0.0 mm
08:50 PM 60.6°F15.9°C 49.2°F9.6°C 66% 4.2 mph NW6.8 kmh NW 6.9 mph11.1 kmh 29.80 in1009.1 mb 0.00 in0.0 mm 0.00 in0.0 mm 0.00 in0.0 mm
09:00 PM 60.6°F15.9°C 49.2°F9.6°C 66% 4.3 mph WNW6.9 kmh WNW 6.9 mph11.1 kmh 29.81 in1009.5 mb 0.00 in0.0 mm 0.00 in0.0 mm 0.00 in0.0 mm
09:10 PM 60.6°F15.9°C 49.2°F9.6°C 66% 5.7 mph WNW9.2 kmh WNW 8.3 mph13.4 kmh 29.81 in1009.5 mb 0.00 in0.0 mm 0.00 in0.0 mm 0.00 in0.0 mm
09:20 PM 60.3°F15.7°C 48.9°F9.4°C 66% 2.8 mph NW4.5 kmh NW 7.6 mph12.2 kmh 29.81 in1009.5 mb 0.00 in0.0 mm 0.00 in0.0 mm 0.00 in0.0 mm
09:30 PM 59.9°F15.5°C 48.9°F9.4°C 67% 4.0 mph NW6.4 kmh NW 6.0 mph9.7 kmh 29.81 in1009.5 mb 0.00 in0.0 mm 0.00 in0.0 mm 0.00 in0.0 mm
09:40 PM 59.7°F15.4°C 48.8°F9.3°C 67% 3.3 mph NW5.3 kmh NW 5.4 mph8.7 kmh 29.82 in1009.8 mb 0.00 in0.0 mm 0.00 in0.0 mm 0.00 in0.0 mm
09:50 PM 59.4°F15.2°C 48.4°F9.1°C 67% 2.7 mph W4.3 kmh W 5.4 mph8.7 kmh 29.83 in1010.2 mb 0.00 in0.0 mm 0.00 in0.0 mm 0.00 in0.0 mm
10:00 PM 59.2°F15.1°C 48.6°F9.2°C 68% 3.5 mph W5.6 kmh W 5.4 mph8.7 kmh 29.82 in1009.8 mb 0.00 in0.0 mm 0.00 in0.0 mm 0.00 in0.0 mm
10:10 PM 59.0°F15.0°C 48.9°F9.4°C 69% 3.5 mph NNW5.6 kmh NNW 5.4 mph8.7 kmh 29.83 in1010.2 mb 0.00 in0.0 mm 0.00 in0.0 mm 0.00 in0.0 mm
10:20 PM 58.6°F14.8°C 48.9°F9.4°C 70% 3.6 mph W5.8 kmh W 7.6 mph12.2 kmh 29.83 in1010.2 mb 0.00 in0.0 mm 0.00 in0.0 mm 0.00 in0.0 mm
10:30 PM 58.1°F14.5°C 48.4°F9.1°C 70% 2.2 mph NNW3.5 kmh NNW 3.1 mph5.0 kmh 29.83 in1010.2 mb 0.00 in0.0 mm 0.00 in0.0 mm 0.00 in0.0 mm
10:40 PM 57.9°F14.4°C 48.2°F9.0°C 70% 1.8 mph N2.9 kmh N 4.5 mph7.2 kmh 29.84 in1010.5 mb 0.00 in0.0 mm 0.00 in0.0 mm 0.00 in0.0 mm
10:50 PM 57.4°F14.1°C 48.1°F8.9°C 71% 2.1 mph NE3.4 kmh NE 3.1 mph5.0 kmh 29.83 in1010.2 mb 0.00 in0.0 mm 0.00 in0.0 mm 0.00 in0.0 mm
11:00 PM 56.7°F13.7°C 47.7°F8.7°C 72% 2.2 mph NNE3.5 kmh NNE 3.1 mph5.0 kmh 29.84 in1010.5 mb 0.00 in0.0 mm 0.00 in0.0 mm 0.00 in0.0 mm
11:10 PM 56.3°F13.5°C 47.8°F8.8°C 73% 1.8 mph NE2.9 kmh NE 3.1 mph5.0 kmh 29.84 in1010.5 mb 0.00 in0.0 mm 0.00 in0.0 mm 0.00 in0.0 mm
11:20 PM 56.1°F13.4°C 48.0°F8.9°C 74% 1.7 mph NNE2.7 kmh NNE 3.1 mph5.0 kmh 29.84 in1010.5 mb 0.00 in0.0 mm 0.00 in0.0 mm 0.00 in0.0 mm
11:30 PM 55.8°F13.2°C 47.6°F8.7°C 74% 1.8 mph NNE2.9 kmh NNE 3.1 mph5.0 kmh 29.84 in1010.5 mb 0.00 in0.0 mm 0.00 in0.0 mm 0.00 in0.0 mm
11:40 PM 55.2°F12.9°C 47.4°F8.6°C 75% 1.6 mph NE2.6 kmh NE 3.1 mph5.0 kmh 29.84 in1010.5 mb 0.00 in0.0 mm 0.00 in0.0 mm 0.00 in0.0 mm
11:50 PM 54.9°F12.7°C 47.4°F8.6°C 76% 0.4 mph E0.6 kmh E 2.2 mph3.5 kmh 29.84 in1010.5 mb 0.00 in0.0 mm 0.00 in0.0 mm 0.00 in0.0 mm